Pedro Bay, AK

6:28 AM AKDT on October 02, 2014 (GMT -0800)
Iliamna | Change Station
CLOSE
Current Station
Airport
Location: Iliamna,
Elevation: 161 ft
Nearby Weather Stations

Elev 161 ft 59.75 °N, 154.91 °W | Updated 35 minutes ago

Clear
Clear
36 °F
Feels Like 28 °F
N
12
Wind Variable Wind from North

Today
High -- | Low -- °F
--% Chance of Precip.
Yesterday
High -- | Low -- °F
Precip. -- in
8:27 AM 7:48 PM
First Quarter, 59% visible
Pressure 30.01 in
Visibility 10.0 miles
Clouds Clear
Windchill 28 °F
Dew Point 29 °F
Humidity 76%
Rainfall 0.00 in
Snow Depth 2 in , 1 in , 7 in
UV 0 out of 12
Pollen Not available.
Air Quality Not available.
Flu Activity Not available.
METAR PAIL 021353Z 01010KT 10SM CLR 02/M02 A3000 RMK AO2 SLP162 T00221017 $

More Conditions Fewer Conditions

Pressure 30.01 in
Visibility 10.0 miles
Clouds Clear
Windchill 28 °F
Dew Point 29 °F
Humidity 76%
Rainfall 0.00 in
Snow Depth 2 in , 1 in , 7 in
UV 0 out of 12
Pollen Not available.
Air Quality Not available.
Flu Activity Not available.
METAR PAIL 021353Z 01010KT 10SM CLR 02/M02 A3000 RMK AO2 SLP162 T00221017 $

More Conditions Fewer Conditions

10-Day Weather Forecast

Almanac

Astronomy

Oct. 02, 2014 Rise Set
Actual Time 8:27 AM AKDT 7:48 PM AKDT
Civil Twilight 7:46 AM AKDT 8:29 PM AKDT
Nautical Twilight 6:58 AM AKDT 9:17 PM AKDT
Astronomical Twilight 6:07 AM AKDT 10:07 PM AKDT
Moon 5:18 PM AKDT 12:33 AM AKDT
Length of Visible Light 12h 42m
Length of Day
11h 20m
Tomorrow will be 5m 20s shorter.
First Quarter, 59% of the Moon is Illuminated
Today
First Quarter
Oct 8
Full
Oct 15
Last Quarter
Oct 23
New
Oct 30
First Quarter

Today's Extremes

State Highs State Lows

Community

WunderPhotos

Upload Photos

1,758,250 photos uploaded!

WunderBlogs® & News

By Dr. Jeff Masters
Director of Meteorology, Weather Underground
By Kari Strenfel
Meteorologist, Weather Underground
By Christopher C. Burt
Weather Historian, Weather Underground
October 2, 2014
October 2, 2014
October 2, 2014

Nearby

Snow Depth

Station Depth Elevation
Atigun Pass 75 in 4800 ft
Monument Creek 2 in 1850 ft
Mcneil Canyon 1 in 1320 ft
Upper Chena 7 in 2850 ft
Susitna Valley High 2 in 375 ft

Earthquake Activity

City Distance Mag. Time & Date
No recent earthquake activity has been reported nearby.
Minimum magnitude displayed is 2.5.

Coastal Water Temperatures

Place Temperature
No Stations Reporting

Nearby Weather Stations